sensor_id;sensor_type;location;lat;lon;timestamp;P1;durP1;ratioP1;P2;durP2;ratioP2
13571;SDS011;6857;53.484;10.216;2024-03-02T00:00:00;32.00;;;19.40;;
13571;SDS011;6857;53.484;10.216;2024-03-02T00:02:34;28.57;;;18.17;;
13571;SDS011;6857;53.484;10.216;2024-03-02T00:05:05;30.40;;;18.23;;
13571;SDS011;6857;53.484;10.216;2024-03-02T00:07:31;33.53;;;19.53;;
13571;SDS011;6857;53.484;10.216;2024-03-02T00:09:57;32.60;;;20.13;;
13571;SDS011;6857;53.484;10.216;2024-03-02T00:12:23;32.87;;;19.73;;
13571;SDS011;6857;53.484;10.216;2024-03-02T00:14:52;33.87;;;19.90;;
13571;SDS011;6857;53.484;10.216;2024-03-02T00:17:21;35.40;;;19.77;;
13571;SDS011;6857;53.484;10.216;2024-03-02T00:19:50;35.73;;;21.00;;
13571;SDS011;6857;53.484;10.216;2024-03-02T00:22:17;36.80;;;20.07;;
13571;SDS011;6857;53.484;10.216;2024-03-02T00:24:43;38.27;;;20.50;;
13571;SDS011;6857;53.484;10.216;2024-03-02T00:27:15;33.77;;;19.90;;
13571;SDS011;6857;53.484;10.216;2024-03-02T00:29:47;34.10;;;20.67;;
13571;SDS011;6857;53.484;10.216;2024-03-02T00:32:13;35.73;;;20.43;;
13571;SDS011;6857;53.484;10.216;2024-03-02T00:34:41;36.97;;;21.23;;
13571;SDS011;6857;53.484;10.216;2024-03-02T00:37:08;35.57;;;20.57;;
13571;SDS011;6857;53.484;10.216;2024-03-02T00:39:34;39.57;;;20.47;;
13571;SDS011;6857;53.484;10.216;2024-03-02T00:42:00;34.87;;;20.87;;
13571;SDS011;6857;53.484;10.216;2024-03-02T00:44:26;36.37;;;22.13;;
13571;SDS011;6857;53.484;10.216;2024-03-02T00:46:55;38.40;;;21.53;;
13571;SDS011;6857;53.484;10.216;2024-03-02T00:49:22;35.13;;;21.20;;
13571;SDS011;6857;53.484;10.216;2024-03-02T00:51:52;36.40;;;21.63;;
13571;SDS011;6857;53.484;10.216;2024-03-02T00:54:22;37.57;;;22.10;;
13571;SDS011;6857;53.484;10.216;2024-03-02T00:56:50;38.20;;;22.23;;
13571;SDS011;6857;53.484;10.216;2024-03-02T00:59:17;33.73;;;20.43;;
13571;SDS011;6857;53.484;10.216;2024-03-02T01:01:43;35.80;;;20.83;;
13571;SDS011;6857;53.484;10.216;2024-03-02T01:04:09;40.13;;;22.40;;
13571;SDS011;6857;53.484;10.216;2024-03-02T01:06:35;40.33;;;21.97;;
13571;SDS011;6857;53.484;10.216;2024-03-02T01:09:01;41.20;;;22.30;;
13571;SDS011;6857;53.484;10.216;2024-03-02T01:11:27;41.30;;;22.77;;
13571;SDS011;6857;53.484;10.216;2024-03-02T01:13:53;40.57;;;22.90;;
13571;SDS011;6857;53.484;10.216;2024-03-02T01:16:18;40.33;;;22.20;;
13571;SDS011;6857;53.484;10.216;2024-03-02T01:18:44;39.43;;;22.57;;
13571;SDS011;6857;53.484;10.216;2024-03-02T01:21:10;39.93;;;22.47;;
13571;SDS011;6857;53.484;10.216;2024-03-02T01:23:35;39.40;;;22.73;;
13571;SDS011;6857;53.484;10.216;2024-03-02T01:26:04;41.93;;;23.10;;
13571;SDS011;6857;53.484;10.216;2024-03-02T01:28:30;37.53;;;23.03;;
13571;SDS011;6857;53.484;10.216;2024-03-02T01:30:56;41.03;;;23.70;;
13571;SDS011;6857;53.484;10.216;2024-03-02T01:33:21;43.27;;;23.57;;
13571;SDS011;6857;53.484;10.216;2024-03-02T01:35:47;46.33;;;24.43;;
13571;SDS011;6857;53.484;10.216;2024-03-02T01:38:12;43.33;;;24.43;;
13571;SDS011;6857;53.484;10.216;2024-03-02T01:40:38;39.67;;;22.60;;
13571;SDS011;6857;53.484;10.216;2024-03-02T01:43:04;40.93;;;23.50;;
13571;SDS011;6857;53.484;10.216;2024-03-02T01:45:31;41.83;;;23.93;;
13571;SDS011;6857;53.484;10.216;2024-03-02T01:47:57;42.97;;;24.40;;
13571;SDS011;6857;53.484;10.216;2024-03-02T01:50:29;44.80;;;24.23;;
13571;SDS011;6857;53.484;10.216;2024-03-02T01:52:57;43.53;;;24.67;;
13571;SDS011;6857;53.484;10.216;2024-03-02T01:55:23;43.47;;;23.50;;
13571;SDS011;6857;53.484;10.216;2024-03-02T01:57:49;41.67;;;23.77;;
13571;SDS011;6857;53.484;10.216;2024-03-02T02:00:20;44.03;;;24.10;;
13571;SDS011;6857;53.484;10.216;2024-03-02T02:02:47;46.13;;;24.70;;
13571;SDS011;6857;53.484;10.216;2024-03-02T02:05:13;39.87;;;23.53;;
13571;SDS011;6857;53.484;10.216;2024-03-02T02:07:40;41.90;;;24.27;;
13571;SDS011;6857;53.484;10.216;2024-03-02T02:10:07;38.03;;;22.70;;
13571;SDS011;6857;53.484;10.216;2024-03-02T02:12:33;39.27;;;23.07;;
13571;SDS011;6857;53.484;10.216;2024-03-02T02:14:58;43.37;;;24.07;;
13571;SDS011;6857;53.484;10.216;2024-03-02T02:17:24;39.90;;;23.07;;
13571;SDS011;6857;53.484;10.216;2024-03-02T02:19:49;45.67;;;24.77;;
13571;SDS011;6857;53.484;10.216;2024-03-02T02:22:15;45.47;;;24.97;;
13571;SDS011;6857;53.484;10.216;2024-03-02T02:24:40;45.23;;;24.60;;
13571;SDS011;6857;53.484;10.216;2024-03-02T02:27:07;40.73;;;23.40;;
13571;SDS011;6857;53.484;10.216;2024-03-02T02:29:33;40.73;;;23.27;;
13571;SDS011;6857;53.484;10.216;2024-03-02T02:31:58;41.83;;;22.73;;
13571;SDS011;6857;53.484;10.216;2024-03-02T02:34:24;39.77;;;22.53;;
13571;SDS011;6857;53.484;10.216;2024-03-02T02:36:49;43.43;;;22.87;;
13571;SDS011;6857;53.484;10.216;2024-03-02T02:39:15;46.87;;;24.97;;
13571;SDS011;6857;53.484;10.216;2024-03-02T02:41:43;43.07;;;24.53;;
13571;SDS011;6857;53.484;10.216;2024-03-02T02:44:09;47.10;;;24.70;;
13571;SDS011;6857;53.484;10.216;2024-03-02T02:46:37;40.07;;;22.60;;
13571;SDS011;6857;53.484;10.216;2024-03-02T02:49:06;41.20;;;23.27;;
13571;SDS011;6857;53.484;10.216;2024-03-02T02:51:32;41.10;;;23.70;;
13571;SDS011;6857;53.484;10.216;2024-03-02T02:53:57;40.67;;;23.00;;
13571;SDS011;6857;53.484;10.216;2024-03-02T02:56:23;44.00;;;23.57;;
13571;SDS011;6857;53.484;10.216;2024-03-02T02:58:49;40.07;;;23.43;;
13571;SDS011;6857;53.484;10.216;2024-03-02T03:01:15;43.20;;;23.93;;
13571;SDS011;6857;53.484;10.216;2024-03-02T03:03:42;43.30;;;23.77;;
13571;SDS011;6857;53.484;10.216;2024-03-02T03:06:08;44.83;;;23.77;;
13571;SDS011;6857;53.484;10.216;2024-03-02T03:08:34;42.57;;;23.70;;
13571;SDS011;6857;53.484;10.216;2024-03-02T03:10:59;41.80;;;22.70;;
13571;SDS011;6857;53.484;10.216;2024-03-02T03:13:25;42.53;;;23.00;;
13571;SDS011;6857;53.484;10.216;2024-03-02T03:15:50;39.70;;;21.63;;
13571;SDS011;6857;53.484;10.216;2024-03-02T03:18:16;41.87;;;23.27;;
13571;SDS011;6857;53.484;10.216;2024-03-02T03:20:42;43.63;;;22.57;;
13571;SDS011;6857;53.484;10.216;2024-03-02T03:23:07;39.67;;;22.13;;
13571;SDS011;6857;53.484;10.216;2024-03-02T03:25:33;39.63;;;22.10;;
13571;SDS011;6857;53.484;10.216;2024-03-02T03:27:59;40.17;;;23.00;;
13571;SDS011;6857;53.484;10.216;2024-03-02T03:30:24;40.13;;;23.70;;
13571;SDS011;6857;53.484;10.216;2024-03-02T03:32:50;40.37;;;22.63;;
13571;SDS011;6857;53.484;10.216;2024-03-02T03:35:16;41.70;;;22.83;;
13571;SDS011;6857;53.484;10.216;2024-03-02T03:37:43;39.67;;;23.00;;
13571;SDS011;6857;53.484;10.216;2024-03-02T03:40:09;40.13;;;22.77;;
13571;SDS011;6857;53.484;10.216;2024-03-02T03:42:35;41.57;;;22.53;;
13571;SDS011;6857;53.484;10.216;2024-03-02T03:45:02;38.53;;;21.97;;
13571;SDS011;6857;53.484;10.216;2024-03-02T03:47:28;40.20;;;22.40;;
13571;SDS011;6857;53.484;10.216;2024-03-02T03:49:56;40.90;;;22.23;;
13571;SDS011;6857;53.484;10.216;2024-03-02T03:52:21;41.53;;;22.40;;
13571;SDS011;6857;53.484;10.216;2024-03-02T03:54:47;42.13;;;22.43;;
13571;SDS011;6857;53.484;10.216;2024-03-02T03:57:12;39.87;;;22.53;;
13571;SDS011;6857;53.484;10.216;2024-03-02T03:59:38;37.17;;;21.60;;
13571;SDS011;6857;53.484;10.216;2024-03-02T04:02:03;39.80;;;22.20;;
13571;SDS011;6857;53.484;10.216;2024-03-02T04:04:29;39.23;;;22.37;;
13571;SDS011;6857;53.484;10.216;2024-03-02T04:06:55;36.77;;;21.90;;
13571;SDS011;6857;53.484;10.216;2024-03-02T04:09:20;39.47;;;22.93;;
13571;SDS011;6857;53.484;10.216;2024-03-02T04:11:46;39.87;;;21.17;;
13571;SDS011;6857;53.484;10.216;2024-03-02T04:14:11;37.13;;;21.33;;
13571;SDS011;6857;53.484;10.216;2024-03-02T04:16:37;36.00;;;21.00;;
13571;SDS011;6857;53.484;10.216;2024-03-02T04:19:04;33.30;;;20.63;;
13571;SDS011;6857;53.484;10.216;2024-03-02T04:21:30;38.87;;;21.33;;
13571;SDS011;6857;53.484;10.216;2024-03-02T04:23:55;37.13;;;20.37;;
13571;SDS011;6857;53.484;10.216;2024-03-02T04:26:23;31.50;;;20.17;;
13571;SDS011;6857;53.484;10.216;2024-03-02T04:28:50;32.90;;;19.63;;
13571;SDS011;6857;53.484;10.216;2024-03-02T04:31:16;33.70;;;19.57;;
13571;SDS011;6857;53.484;10.216;2024-03-02T04:33:42;32.73;;;19.13;;
13571;SDS011;6857;53.484;10.216;2024-03-02T04:36:08;34.23;;;22.00;;
13571;SDS011;6857;53.484;10.216;2024-03-02T04:38:34;36.70;;;21.57;;
13571;SDS011;6857;53.484;10.216;2024-03-02T04:41:00;34.40;;;20.60;;
13571;SDS011;6857;53.484;10.216;2024-03-02T04:43:26;33.70;;;20.90;;
13571;SDS011;6857;53.484;10.216;2024-03-02T04:45:51;34.93;;;20.10;;
13571;SDS011;6857;53.484;10.216;2024-03-02T04:48:17;33.93;;;20.67;;
13571;SDS011;6857;53.484;10.216;2024-03-02T04:50:43;39.27;;;19.50;;
13571;SDS011;6857;53.484;10.216;2024-03-02T04:53:08;31.93;;;19.53;;
13571;SDS011;6857;53.484;10.216;2024-03-02T04:55:34;34.03;;;19.53;;
13571;SDS011;6857;53.484;10.216;2024-03-02T04:57:59;34.73;;;20.10;;
13571;SDS011;6857;53.484;10.216;2024-03-02T05:00:25;33.10;;;19.80;;
13571;SDS011;6857;53.484;10.216;2024-03-02T05:02:50;33.33;;;19.07;;
13571;SDS011;6857;53.484;10.216;2024-03-02T05:05:16;31.77;;;19.07;;
13571;SDS011;6857;53.484;10.216;2024-03-02T05:07:42;35.97;;;20.03;;
13571;SDS011;6857;53.484;10.216;2024-03-02T05:10:09;33.43;;;20.10;;
13571;SDS011;6857;53.484;10.216;2024-03-02T05:12:34;37.33;;;20.20;;
13571;SDS011;6857;53.484;10.216;2024-03-02T05:15:22;33.80;;;19.60;;
13571;SDS011;6857;53.484;10.216;2024-03-02T05:17:47;34.13;;;19.80;;
13571;SDS011;6857;53.484;10.216;2024-03-02T05:20:13;35.30;;;20.83;;
13571;SDS011;6857;53.484;10.216;2024-03-02T05:22:38;37.27;;;20.97;;
13571;SDS011;6857;53.484;10.216;2024-03-02T05:25:06;34.73;;;20.30;;
13571;SDS011;6857;53.484;10.216;2024-03-02T05:27:32;34.23;;;19.93;;
13571;SDS011;6857;53.484;10.216;2024-03-02T05:29:58;38.37;;;21.63;;
13571;SDS011;6857;53.484;10.216;2024-03-02T05:32:24;35.20;;;20.43;;
13571;SDS011;6857;53.484;10.216;2024-03-02T05:34:49;36.53;;;20.67;;
13571;SDS011;6857;53.484;10.216;2024-03-02T05:37:15;36.80;;;20.90;;
13571;SDS011;6857;53.484;10.216;2024-03-02T05:39:41;32.50;;;19.77;;
13571;SDS011;6857;53.484;10.216;2024-03-02T05:42:08;36.77;;;20.47;;
13571;SDS011;6857;53.484;10.216;2024-03-02T05:44:34;36.63;;;21.07;;
13571;SDS011;6857;53.484;10.216;2024-03-02T05:47:00;36.67;;;20.27;;
13571;SDS011;6857;53.484;10.216;2024-03-02T05:49:25;36.53;;;20.53;;
13571;SDS011;6857;53.484;10.216;2024-03-02T05:51:51;35.20;;;20.30;;
13571;SDS011;6857;53.484;10.216;2024-03-02T05:54:16;32.00;;;20.07;;
13571;SDS011;6857;53.484;10.216;2024-03-02T05:56:42;33.23;;;19.63;;
13571;SDS011;6857;53.484;10.216;2024-03-02T05:59:07;35.63;;;20.27;;
13571;SDS011;6857;53.484;10.216;2024-03-02T06:04:08;33.80;;;20.00;;
13571;SDS011;6857;53.484;10.216;2024-03-02T06:06:36;32.43;;;18.97;;
13571;SDS011;6857;53.484;10.216;2024-03-02T06:09:01;36.70;;;20.13;;
13571;SDS011;6857;53.484;10.216;2024-03-02T06:11:34;36.60;;;19.77;;
13571;SDS011;6857;53.484;10.216;2024-03-02T06:14:01;32.63;;;20.10;;
13571;SDS011;6857;53.484;10.216;2024-03-02T06:16:27;36.53;;;19.43;;
13571;SDS011;6857;53.484;10.216;2024-03-02T06:18:52;33.17;;;18.43;;
13571;SDS011;6857;53.484;10.216;2024-03-02T06:21:19;35.30;;;20.37;;
13571;SDS011;6857;53.484;10.216;2024-03-02T06:23:45;32.53;;;19.50;;
13571;SDS011;6857;53.484;10.216;2024-03-02T06:26:11;35.10;;;19.23;;
13571;SDS011;6857;53.484;10.216;2024-03-02T06:28:37;35.63;;;20.03;;
13571;SDS011;6857;53.484;10.216;2024-03-02T06:31:03;34.63;;;19.43;;
13571;SDS011;6857;53.484;10.216;2024-03-02T06:33:29;31.13;;;18.87;;
13571;SDS011;6857;53.484;10.216;2024-03-02T06:35:54;36.07;;;20.90;;
13571;SDS011;6857;53.484;10.216;2024-03-02T06:38:20;34.50;;;20.10;;
13571;SDS011;6857;53.484;10.216;2024-03-02T06:40:45;34.10;;;20.03;;
13571;SDS011;6857;53.484;10.216;2024-03-02T06:43:11;38.43;;;20.20;;
13571;SDS011;6857;53.484;10.216;2024-03-02T06:45:37;34.97;;;19.67;;
13571;SDS011;6857;53.484;10.216;2024-03-02T06:48:02;36.13;;;21.10;;
13571;SDS011;6857;53.484;10.216;2024-03-02T06:50:28;33.30;;;19.97;;
13571;SDS011;6857;53.484;10.216;2024-03-02T06:52:54;34.67;;;20.47;;
13571;SDS011;6857;53.484;10.216;2024-03-02T06:55:21;36.07;;;20.03;;
13571;SDS011;6857;53.484;10.216;2024-03-02T06:57:46;36.57;;;21.03;;
13571;SDS011;6857;53.484;10.216;2024-03-02T07:00:12;35.23;;;20.30;;
13571;SDS011;6857;53.484;10.216;2024-03-02T07:02:38;33.27;;;20.77;;
13571;SDS011;6857;53.484;10.216;2024-03-02T07:05:06;34.70;;;20.97;;
13571;SDS011;6857;53.484;10.216;2024-03-02T07:07:33;32.73;;;20.00;;
13571;SDS011;6857;53.484;10.216;2024-03-02T07:09:59;33.67;;;19.80;;
13571;SDS011;6857;53.484;10.216;2024-03-02T07:12:25;34.73;;;20.67;;
13571;SDS011;6857;53.484;10.216;2024-03-02T07:14:51;32.33;;;19.80;;
13571;SDS011;6857;53.484;10.216;2024-03-02T07:17:31;33.13;;;19.27;;
13571;SDS011;6857;53.484;10.216;2024-03-02T07:19:57;35.77;;;21.53;;
13571;SDS011;6857;53.484;10.216;2024-03-02T07:22:23;32.33;;;19.57;;
13571;SDS011;6857;53.484;10.216;2024-03-02T07:24:49;33.57;;;19.47;;
13571;SDS011;6857;53.484;10.216;2024-03-02T07:27:15;34.17;;;20.67;;
13571;SDS011;6857;53.484;10.216;2024-03-02T07:29:41;34.77;;;19.77;;
13571;SDS011;6857;53.484;10.216;2024-03-02T07:32:08;34.67;;;20.27;;
13571;SDS011;6857;53.484;10.216;2024-03-02T07:34:34;34.90;;;21.13;;
13571;SDS011;6857;53.484;10.216;2024-03-02T07:37:00;35.20;;;21.37;;
13571;SDS011;6857;53.484;10.216;2024-03-02T07:39:26;36.57;;;21.00;;
13571;SDS011;6857;53.484;10.216;2024-03-02T07:41:52;35.93;;;19.63;;
13571;SDS011;6857;53.484;10.216;2024-03-02T07:44:18;30.33;;;19.43;;
13571;SDS011;6857;53.484;10.216;2024-03-02T07:46:47;35.20;;;20.13;;
13571;SDS011;6857;53.484;10.216;2024-03-02T07:49:16;36.07;;;21.40;;
13571;SDS011;6857;53.484;10.216;2024-03-02T07:51:43;32.80;;;19.53;;
13571;SDS011;6857;53.484;10.216;2024-03-02T07:54:08;37.53;;;20.63;;
13571;SDS011;6857;53.484;10.216;2024-03-02T07:56:34;34.43;;;21.00;;
13571;SDS011;6857;53.484;10.216;2024-03-02T07:59:00;33.77;;;19.97;;
13571;SDS011;6857;53.484;10.216;2024-03-02T08:01:31;30.73;;;19.90;;
13571;SDS011;6857;53.484;10.216;2024-03-02T08:04:01;28.67;;;18.40;;
13571;SDS011;6857;53.484;10.216;2024-03-02T08:06:28;29.37;;;18.77;;
13571;SDS011;6857;53.484;10.216;2024-03-02T08:08:58;33.93;;;20.37;;
13571;SDS011;6857;53.484;10.216;2024-03-02T08:11:24;26.47;;;18.33;;
13571;SDS011;6857;53.484;10.216;2024-03-02T08:13:50;32.20;;;19.00;;
13571;SDS011;6857;53.484;10.216;2024-03-02T08:16:17;30.20;;;18.67;;
13571;SDS011;6857;53.484;10.216;2024-03-02T08:18:45;31.47;;;19.80;;
13571;SDS011;6857;53.484;10.216;2024-03-02T08:21:11;30.87;;;19.90;;
13571;SDS011;6857;53.484;10.216;2024-03-02T08:23:37;30.83;;;19.50;;
13571;SDS011;6857;53.484;10.216;2024-03-02T08:26:03;33.17;;;19.07;;
13571;SDS011;6857;53.484;10.216;2024-03-02T08:28:29;32.37;;;19.00;;
13571;SDS011;6857;53.484;10.216;2024-03-02T08:30:54;30.37;;;19.30;;
13571;SDS011;6857;53.484;10.216;2024-03-02T08:33:21;33.07;;;19.83;;
13571;SDS011;6857;53.484;10.216;2024-03-02T08:35:46;30.90;;;19.80;;
13571;SDS011;6857;53.484;10.216;2024-03-02T08:38:12;30.10;;;18.80;;
13571;SDS011;6857;53.484;10.216;2024-03-02T08:40:37;31.37;;;19.27;;
13571;SDS011;6857;53.484;10.216;2024-03-02T08:43:03;30.10;;;19.73;;
13571;SDS011;6857;53.484;10.216;2024-03-02T08:45:28;32.47;;;19.43;;
13571;SDS011;6857;53.484;10.216;2024-03-02T08:47:55;33.23;;;20.10;;
13571;SDS011;6857;53.484;10.216;2024-03-02T08:50:20;31.27;;;19.47;;
13571;SDS011;6857;53.484;10.216;2024-03-02T08:52:46;28.60;;;17.53;;
13571;SDS011;6857;53.484;10.216;2024-03-02T08:55:11;29.00;;;18.63;;
13571;SDS011;6857;53.484;10.216;2024-03-02T08:57:37;40.27;;;24.50;;
13571;SDS011;6857;53.484;10.216;2024-03-02T09:00:03;34.80;;;22.10;;
13571;SDS011;6857;53.484;10.216;2024-03-02T09:02:30;30.47;;;19.10;;
13571;SDS011;6857;53.484;10.216;2024-03-02T09:04:56;32.33;;;19.30;;
13571;SDS011;6857;53.484;10.216;2024-03-02T09:07:22;29.83;;;18.70;;
13571;SDS011;6857;53.484;10.216;2024-03-02T09:09:47;34.87;;;20.80;;
13571;SDS011;6857;53.484;10.216;2024-03-02T09:12:14;28.57;;;18.30;;
13571;SDS011;6857;53.484;10.216;2024-03-02T09:14:40;33.23;;;22.23;;
13571;SDS011;6857;53.484;10.216;2024-03-02T09:17:06;33.57;;;22.00;;
13571;SDS011;6857;53.484;10.216;2024-03-02T09:19:32;29.30;;;19.83;;
13571;SDS011;6857;53.484;10.216;2024-03-02T09:21:57;29.63;;;18.33;;
13571;SDS011;6857;53.484;10.216;2024-03-02T09:24:23;27.47;;;18.67;;
13571;SDS011;6857;53.484;10.216;2024-03-02T09:26:49;30.80;;;18.70;;
13571;SDS011;6857;53.484;10.216;2024-03-02T09:29:15;29.33;;;18.83;;
13571;SDS011;6857;53.484;10.216;2024-03-02T09:31:41;32.07;;;17.47;;
13571;SDS011;6857;53.484;10.216;2024-03-02T09:34:07;33.37;;;20.70;;
13571;SDS011;6857;53.484;10.216;2024-03-02T09:36:33;31.00;;;18.80;;
13571;SDS011;6857;53.484;10.216;2024-03-02T09:38:59;31.67;;;20.80;;
13571;SDS011;6857;53.484;10.216;2024-03-02T09:41:24;30.23;;;19.23;;
13571;SDS011;6857;53.484;10.216;2024-03-02T09:43:50;24.47;;;16.80;;
13571;SDS011;6857;53.484;10.216;2024-03-02T09:46:16;27.70;;;17.07;;
13571;SDS011;6857;53.484;10.216;2024-03-02T09:48:43;24.50;;;15.00;;
13571;SDS011;6857;53.484;10.216;2024-03-02T09:51:10;27.03;;;17.03;;
13571;SDS011;6857;53.484;10.216;2024-03-02T09:53:36;21.10;;;13.97;;
13571;SDS011;6857;53.484;10.216;2024-03-02T09:56:02;20.47;;;14.00;;
13571;SDS011;6857;53.484;10.216;2024-03-02T09:58:29;19.33;;;13.20;;
13571;SDS011;6857;53.484;10.216;2024-03-02T10:00:55;20.37;;;13.30;;
13571;SDS011;6857;53.484;10.216;2024-03-02T10:03:21;19.30;;;13.13;;
13571;SDS011;6857;53.484;10.216;2024-03-02T10:05:49;18.97;;;12.37;;
13571;SDS011;6857;53.484;10.216;2024-03-02T10:08:15;18.63;;;12.97;;
13571;SDS011;6857;53.484;10.216;2024-03-02T10:10:41;20.10;;;13.70;;
13571;SDS011;6857;53.484;10.216;2024-03-02T10:13:08;22.43;;;14.50;;
13571;SDS011;6857;53.484;10.216;2024-03-02T10:15:35;24.47;;;16.27;;
13571;SDS011;6857;53.484;10.216;2024-03-02T10:18:08;17.57;;;12.70;;
13571;SDS011;6857;53.484;10.216;2024-03-02T10:20:38;20.60;;;14.53;;
13571;SDS011;6857;53.484;10.216;2024-03-02T10:23:14;16.80;;;12.20;;
13571;SDS011;6857;53.484;10.216;2024-03-02T10:25:42;20.40;;;13.70;;
13571;SDS011;6857;53.484;10.216;2024-03-02T10:28:09;17.97;;;12.87;;
13571;SDS011;6857;53.484;10.216;2024-03-02T10:30:35;21.10;;;14.43;;
13571;SDS011;6857;53.484;10.216;2024-03-02T10:33:01;35.10;;;21.77;;
13571;SDS011;6857;53.484;10.216;2024-03-02T10:35:27;18.20;;;12.17;;
13571;SDS011;6857;53.484;10.216;2024-03-02T10:37:53;17.90;;;11.87;;
13571;SDS011;6857;53.484;10.216;2024-03-02T10:40:22;26.73;;;18.20;;
13571;SDS011;6857;53.484;10.216;2024-03-02T10:42:49;16.37;;;11.40;;
13571;SDS011;6857;53.484;10.216;2024-03-02T10:45:16;20.20;;;14.50;;
13571;SDS011;6857;53.484;10.216;2024-03-02T10:47:44;18.87;;;13.67;;
13571;SDS011;6857;53.484;10.216;2024-03-02T10:50:12;25.17;;;17.40;;
13571;SDS011;6857;53.484;10.216;2024-03-02T10:52:38;16.67;;;12.07;;
13571;SDS011;6857;53.484;10.216;2024-03-02T10:55:04;15.50;;;12.03;;
13571;SDS011;6857;53.484;10.216;2024-03-02T11:00:19;17.27;;;12.13;;
13571;SDS011;6857;53.484;10.216;2024-03-02T11:02:50;15.53;;;10.90;;
13571;SDS011;6857;53.484;10.216;2024-03-02T11:05:20;17.03;;;11.57;;
13571;SDS011;6857;53.484;10.216;2024-03-02T11:07:53;13.60;;;10.60;;
13571;SDS011;6857;53.484;10.216;2024-03-02T11:10:25;16.57;;;11.17;;
13571;SDS011;6857;53.484;10.216;2024-03-02T11:13:00;13.47;;;10.23;;
13571;SDS011;6857;53.484;10.216;2024-03-02T11:15:29;16.50;;;11.27;;
13571;SDS011;6857;53.484;10.216;2024-03-02T11:17:55;16.40;;;10.80;;
13571;SDS011;6857;53.484;10.216;2024-03-02T11:20:22;13.93;;;10.00;;
13571;SDS011;6857;53.484;10.216;2024-03-02T11:22:49;13.70;;;9.73;;
13571;SDS011;6857;53.484;10.216;2024-03-02T11:25:25;13.07;;;9.60;;
13571;SDS011;6857;53.484;10.216;2024-03-02T11:33:01;15.53;;;10.50;;
13571;SDS011;6857;53.484;10.216;2024-03-02T11:35:34;14.73;;;10.50;;
13571;SDS011;6857;53.484;10.216;2024-03-02T11:38:00;15.67;;;11.30;;
13571;SDS011;6857;53.484;10.216;2024-03-02T11:40:28;16.90;;;11.20;;
13571;SDS011;6857;53.484;10.216;2024-03-02T11:42:54;16.33;;;11.70;;
13571;SDS011;6857;53.484;10.216;2024-03-02T11:45:23;16.60;;;11.90;;
13571;SDS011;6857;53.484;10.216;2024-03-02T11:47:50;14.23;;;10.90;;
13571;SDS011;6857;53.484;10.216;2024-03-02T11:50:15;15.37;;;11.00;;
13571;SDS011;6857;53.484;10.216;2024-03-02T11:52:53;14.90;;;10.70;;
13571;SDS011;6857;53.484;10.216;2024-03-02T11:55:18;14.60;;;10.80;;
13571;SDS011;6857;53.484;10.216;2024-03-02T11:57:45;14.53;;;10.30;;
13571;SDS011;6857;53.484;10.216;2024-03-02T12:00:17;12.73;;;9.63;;
13571;SDS011;6857;53.484;10.216;2024-03-02T12:02:44;14.57;;;10.87;;
13571;SDS011;6857;53.484;10.216;2024-03-02T12:05:14;13.50;;;10.27;;
13571;SDS011;6857;53.484;10.216;2024-03-02T12:07:44;17.20;;;10.50;;
13571;SDS011;6857;53.484;10.216;2024-03-02T12:10:11;13.27;;;9.60;;
13571;SDS011;6857;53.484;10.216;2024-03-02T12:12:37;14.17;;;10.13;;
13571;SDS011;6857;53.484;10.216;2024-03-02T12:15:02;16.73;;;9.60;;
13571;SDS011;6857;53.484;10.216;2024-03-02T12:17:28;13.03;;;8.90;;
13571;SDS011;6857;53.484;10.216;2024-03-02T12:19:54;41.40;;;24.03;;
13571;SDS011;6857;53.484;10.216;2024-03-02T12:22:19;14.60;;;10.80;;
13571;SDS011;6857;53.484;10.216;2024-03-02T12:24:46;14.90;;;10.17;;
13571;SDS011;6857;53.484;10.216;2024-03-02T12:27:12;14.50;;;9.83;;
13571;SDS011;6857;53.484;10.216;2024-03-02T12:29:39;17.63;;;12.77;;
13571;SDS011;6857;53.484;10.216;2024-03-02T12:32:06;14.67;;;9.67;;
13571;SDS011;6857;53.484;10.216;2024-03-02T12:34:32;15.73;;;10.00;;
13571;SDS011;6857;53.484;10.216;2024-03-02T12:36:57;13.17;;;9.77;;
13571;SDS011;6857;53.484;10.216;2024-03-02T12:39:23;16.47;;;10.53;;
13571;SDS011;6857;53.484;10.216;2024-03-02T12:41:49;12.97;;;9.80;;
13571;SDS011;6857;53.484;10.216;2024-03-02T12:44:16;14.97;;;10.23;;
13571;SDS011;6857;53.484;10.216;2024-03-02T12:46:42;14.90;;;9.80;;
13571;SDS011;6857;53.484;10.216;2024-03-02T12:49:08;16.30;;;10.73;;
13571;SDS011;6857;53.484;10.216;2024-03-02T12:51:40;14.83;;;10.47;;
13571;SDS011;6857;53.484;10.216;2024-03-02T12:54:07;13.60;;;9.50;;
13571;SDS011;6857;53.484;10.216;2024-03-02T12:56:37;12.80;;;9.57;;
13571;SDS011;6857;53.484;10.216;2024-03-02T12:59:03;16.27;;;9.40;;
13571;SDS011;6857;53.484;10.216;2024-03-02T13:01:29;11.13;;;8.43;;
13571;SDS011;6857;53.484;10.216;2024-03-02T13:03:56;13.07;;;9.40;;
13571;SDS011;6857;53.484;10.216;2024-03-02T13:06:24;14.50;;;9.80;;
13571;SDS011;6857;53.484;10.216;2024-03-02T13:08:52;13.30;;;10.00;;
13571;SDS011;6857;53.484;10.216;2024-03-02T13:11:18;13.60;;;10.10;;
13571;SDS011;6857;53.484;10.216;2024-03-02T13:13:44;13.90;;;9.30;;
13571;SDS011;6857;53.484;10.216;2024-03-02T13:16:10;15.37;;;9.73;;
13571;SDS011;6857;53.484;10.216;2024-03-02T13:18:36;14.93;;;9.90;;
13571;SDS011;6857;53.484;10.216;2024-03-02T13:21:03;14.23;;;9.33;;
13571;SDS011;6857;53.484;10.216;2024-03-02T13:23:29;13.87;;;9.67;;
13571;SDS011;6857;53.484;10.216;2024-03-02T13:25:58;12.53;;;8.97;;
13571;SDS011;6857;53.484;10.216;2024-03-02T13:28:24;13.33;;;9.57;;
13571;SDS011;6857;53.484;10.216;2024-03-02T13:30:50;12.47;;;9.73;;
13571;SDS011;6857;53.484;10.216;2024-03-02T13:33:15;12.53;;;10.17;;
13571;SDS011;6857;53.484;10.216;2024-03-02T13:35:44;13.43;;;9.67;;
13571;SDS011;6857;53.484;10.216;2024-03-02T13:38:10;14.47;;;10.43;;
13571;SDS011;6857;53.484;10.216;2024-03-02T13:40:35;13.87;;;10.20;;
13571;SDS011;6857;53.484;10.216;2024-03-02T13:43:01;16.90;;;11.07;;
13571;SDS011;6857;53.484;10.216;2024-03-02T13:45:28;18.60;;;10.50;;
13571;SDS011;6857;53.484;10.216;2024-03-02T13:47:53;15.50;;;10.80;;
13571;SDS011;6857;53.484;10.216;2024-03-02T13:50:19;13.73;;;10.20;;
13571;SDS011;6857;53.484;10.216;2024-03-02T13:52:45;13.87;;;10.10;;
13571;SDS011;6857;53.484;10.216;2024-03-02T13:55:10;14.23;;;10.10;;
13571;SDS011;6857;53.484;10.216;2024-03-02T13:57:36;13.37;;;9.57;;
13571;SDS011;6857;53.484;10.216;2024-03-02T14:00:02;15.90;;;9.93;;
13571;SDS011;6857;53.484;10.216;2024-03-02T14:02:35;13.17;;;9.90;;
13571;SDS011;6857;53.484;10.216;2024-03-02T14:05:01;14.17;;;9.63;;
13571;SDS011;6857;53.484;10.216;2024-03-02T14:07:26;14.60;;;9.90;;
13571;SDS011;6857;53.484;10.216;2024-03-02T14:09:52;12.97;;;8.63;;
13571;SDS011;6857;53.484;10.216;2024-03-02T14:12:17;14.77;;;9.03;;
13571;SDS011;6857;53.484;10.216;2024-03-02T14:14:43;13.40;;;9.90;;
13571;SDS011;6857;53.484;10.216;2024-03-02T14:17:08;14.47;;;10.97;;
13571;SDS011;6857;53.484;10.216;2024-03-02T14:19:39;16.10;;;11.73;;
13571;SDS011;6857;53.484;10.216;2024-03-02T14:22:05;15.43;;;10.80;;
13571;SDS011;6857;53.484;10.216;2024-03-02T14:24:31;16.60;;;11.47;;
13571;SDS011;6857;53.484;10.216;2024-03-02T14:26:56;16.77;;;10.53;;
13571;SDS011;6857;53.484;10.216;2024-03-02T14:29:28;12.97;;;9.37;;